createdAt,value
2019-02-06T00:00:03.278Z,1032.5
2019-02-06T00:01:03.192Z,1032.4
2019-02-06T00:02:03.495Z,1032.5
2019-02-06T00:03:03.841Z,1032.4
2019-02-06T00:04:05.989Z,1032.4
2019-02-06T00:05:17.716Z,1032.4
2019-02-06T00:06:03.321Z,1032.3
2019-02-06T00:07:03.436Z,1032.4
2019-02-06T00:08:03.455Z,1032.4
2019-02-06T00:09:03.390Z,1032.4
2019-02-06T00:10:03.394Z,1032.3
2019-02-06T00:11:05.700Z,1032.4
2019-02-06T00:12:03.706Z,1032.3
2019-02-06T00:13:03.361Z,1032.3
2019-02-06T00:14:03.623Z,1032.4
2019-02-06T00:15:03.401Z,1032.4
2019-02-06T00:16:04.263Z,1032.3
2019-02-06T00:17:04.155Z,1032.4
2019-02-06T00:18:05.108Z,1032.4
2019-02-06T00:19:03.492Z,1032.4
2019-02-06T00:20:03.382Z,1032.3
2019-02-06T00:21:03.108Z,1032.5
2019-02-06T00:22:03.230Z,1032.3
2019-02-06T00:23:03.467Z,1032.3
2019-02-06T00:24:03.674Z,1032.3
2019-02-06T00:25:03.784Z,1032.3
2019-02-06T00:26:05.323Z,1032.4
2019-02-06T00:27:03.435Z,1032.4
2019-02-06T00:28:03.717Z,1032.3
2019-02-06T00:29:03.798Z,1032.3
2019-02-06T00:30:03.458Z,1032.4
2019-02-06T00:31:03.552Z,1032.3
2019-02-06T00:32:03.267Z,1032.3
2019-02-06T00:33:03.192Z,1032.2
2019-02-06T00:34:05.812Z,1032.3
2019-02-06T00:35:03.066Z,1032.3
2019-02-06T00:36:03.634Z,1032.3
2019-02-06T00:37:02.912Z,1032.3
2019-02-06T00:38:06.224Z,1032.3
2019-02-06T00:39:03.182Z,1032.3
2019-02-06T00:40:03.914Z,1032.3
2019-02-06T00:41:02.795Z,1032.4
2019-02-06T00:42:06.011Z,1032.4
2019-02-06T00:43:03.355Z,1032.4
2019-02-06T00:44:03.703Z,1032.4
2019-02-06T00:45:04.140Z,1032.3
2019-02-06T00:46:03.243Z,1032.3
2019-02-06T00:47:03.782Z,1032.2
2019-02-06T00:48:03.893Z,1032.2
2019-02-06T00:49:04.120Z,1032.3
2019-02-06T00:50:03.609Z,1032.4
2019-02-06T00:51:03.928Z,1032.4
2019-02-06T00:52:03.527Z,1032.3
2019-02-06T00:53:03.921Z,1032.4
2019-02-06T00:54:04.157Z,1032.4
2019-02-06T00:55:03.690Z,1032.4
2019-02-06T00:56:04.016Z,1032.4
2019-02-06T00:57:05.202Z,1032.4
2019-02-06T00:58:03.199Z,1032.4
2019-02-06T00:59:03.125Z,1032.4
2019-02-06T01:00:03.988Z,1032.4
2019-02-06T01:01:03.567Z,1032.3
2019-02-06T01:02:03.637Z,1032.3
2019-02-06T01:03:03.454Z,1032.3
2019-02-06T01:04:03.222Z,1032.4
2019-02-06T01:05:05.841Z,1032.3
2019-02-06T01:06:03.225Z,1032.2
2019-02-06T01:07:04.124Z,1032.3
2019-02-06T01:08:03.568Z,1032.2
2019-02-06T01:09:03.728Z,1032.2
2019-02-06T01:10:03.121Z,1032.2
2019-02-06T01:11:03.475Z,1032.2
2019-02-06T01:12:05.078Z,1032.2
2019-02-06T01:13:03.449Z,1032.3
2019-02-06T01:14:03.971Z,1032.2
2019-02-06T01:15:03.581Z,1032.2
2019-02-06T01:16:03.746Z,1032.3
2019-02-06T01:17:03.514Z,1032.3
2019-02-06T01:18:03.257Z,1032.2
2019-02-06T01:19:03.181Z,1032.2
2019-02-06T01:20:06.173Z,1032.2
2019-02-06T01:21:04.063Z,1032.1
2019-02-06T01:22:02.877Z,1032.2
2019-02-06T01:23:03.257Z,1032.2
2019-02-06T01:24:04.064Z,1032.2
2019-02-06T01:25:03.414Z,1032.2
2019-02-06T01:26:03.342Z,1032.2
2019-02-06T01:27:04.704Z,1032.3
2019-02-06T01:28:03.612Z,1032.2
2019-02-06T01:29:03.829Z,1032.2
2019-02-06T01:30:03.772Z,1032.1
2019-02-06T01:31:03.137Z,1032.2
2019-02-06T01:32:03.246Z,1032
2019-02-06T01:33:03.940Z,1032
2019-02-06T01:34:03.838Z,1032.2
2019-02-06T01:35:05.784Z,1032.3
2019-02-06T01:36:02.880Z,1032.3
2019-02-06T01:37:03.323Z,1032.2
2019-02-06T01:38:03.269Z,1032.2
2019-02-06T01:39:03.990Z,1032.2
2019-02-06T01:40:04.188Z,1032.2
2019-02-06T01:41:03.106Z,1032.2
2019-02-06T01:42:04.683Z,1032.3
2019-02-06T01:43:03.415Z,1032.2
2019-02-06T01:44:03.296Z,1032.3
2019-02-06T01:45:03.389Z,1032.2
2019-02-06T01:46:03.759Z,1032.2
2019-02-06T01:47:03.343Z,1032.2
2019-02-06T01:48:03.322Z,1032.2
2019-02-06T01:49:03.954Z,1032.2
2019-02-06T01:50:05.323Z,1032.2
2019-02-06T01:51:03.018Z,1032.2
2019-02-06T01:52:03.319Z,1032.1
2019-02-06T01:53:03.640Z,1032.2
2019-02-06T01:54:03.864Z,1032
2019-02-06T01:55:04.239Z,1032.1
2019-02-06T01:56:03.806Z,1032.1
2019-02-06T01:57:03.807Z,1032.1
2019-02-06T01:58:03.559Z,1032
2019-02-06T01:59:03.533Z,1032.1
2019-02-06T02:00:03.291Z,1032.1
2019-02-06T02:01:02.991Z,1032.1
2019-02-06T02:02:04.602Z,1032.1
2019-02-06T02:03:02.892Z,1032.1
2019-02-06T02:04:03.622Z,1032
2019-02-06T02:05:05.195Z,1032.1
2019-02-06T02:06:03.288Z,1032.1
2019-02-06T02:07:03.092Z,1031.9
2019-02-06T02:08:03.166Z,1032.1
2019-02-06T02:09:03.062Z,1032
2019-02-06T02:10:04.077Z,1032
2019-02-06T02:11:03.309Z,1032
2019-02-06T02:12:04.021Z,1032
2019-02-06T02:13:03.581Z,1032
2019-02-06T02:14:02.999Z,1032
2019-02-06T02:15:03.455Z,1031.9
2019-02-06T02:16:03.125Z,1032
2019-02-06T02:17:03.640Z,1031.9
2019-02-06T02:18:03.164Z,1032
2019-02-06T02:19:03.265Z,1032
2019-02-06T02:20:05.341Z,1031.9
2019-02-06T02:21:03.088Z,1031.9
2019-02-06T02:22:03.510Z,1031.9
2019-02-06T02:23:03.866Z,1031.9
2019-02-06T02:24:03.149Z,1031.9
2019-02-06T02:25:03.437Z,1031.9
2019-02-06T02:26:03.722Z,1031.9
2019-02-06T02:27:03.316Z,1031.8
2019-02-06T02:28:05.651Z,1031.9
2019-02-06T02:29:03.428Z,1031.9
2019-02-06T02:30:03.600Z,1031.9
2019-02-06T02:31:03.141Z,1031.9
2019-02-06T02:32:03.175Z,1031.9
2019-02-06T02:33:03.954Z,1031.9
2019-02-06T02:34:03.727Z,1031.9
2019-02-06T02:35:03.821Z,1031.9
2019-02-06T02:36:17.042Z,1031.9
2019-02-06T02:37:03.185Z,1031.8
2019-02-06T02:38:03.799Z,1031.8
2019-02-06T02:39:03.938Z,1031.8
2019-02-06T02:40:03.139Z,1031.8
2019-02-06T02:41:03.498Z,1031.8
2019-02-06T02:42:03.048Z,1031.7
2019-02-06T02:43:03.533Z,1031.7
2019-02-06T02:44:03.319Z,1031.7
2019-02-06T02:45:03.507Z,1031.7
2019-02-06T02:46:03.219Z,1031.7
2019-02-06T02:47:03.210Z,1031.8
2019-02-06T02:48:03.990Z,1031.7
2019-02-06T02:49:02.989Z,1031.7
2019-02-06T02:50:03.855Z,1031.7
2019-02-06T02:51:05.248Z,1031.7
2019-02-06T02:52:03.736Z,1031.8
2019-02-06T02:53:03.661Z,1031.8
2019-02-06T02:54:03.394Z,1031.7
2019-02-06T02:55:03.263Z,1031.7
2019-02-06T02:56:04.401Z,1031.8
2019-02-06T02:57:03.375Z,1031.7
2019-02-06T02:58:03.580Z,1031.6
2019-02-06T02:59:04.567Z,1031.7
2019-02-06T03:00:03.999Z,1031.7
2019-02-06T03:01:03.346Z,1031.7
2019-02-06T03:02:04.182Z,1031.7
2019-02-06T03:03:02.848Z,1031.7
2019-02-06T03:04:03.673Z,1031.7
2019-02-06T03:05:03.668Z,1031.7
2019-02-06T03:06:03.511Z,1031.7
2019-02-06T03:07:03.947Z,1031.6
2019-02-06T03:08:03.145Z,1031.7
2019-02-06T03:09:03.529Z,1031.7
2019-02-06T03:10:03.135Z,1031.7
2019-02-06T03:11:03.622Z,1031.7
2019-02-06T03:12:03.292Z,1031.7
2019-02-06T03:13:03.657Z,1031.6
2019-02-06T03:14:05.191Z,1031.6
2019-02-06T03:15:03.757Z,1031.6
2019-02-06T03:16:03.160Z,1031.6
2019-02-06T03:17:04.096Z,1031.6
2019-02-06T03:18:03.937Z,1031.6
2019-02-06T03:19:03.608Z,1031.5
2019-02-06T03:20:03.468Z,1031.6
2019-02-06T03:21:03.843Z,1031.7
2019-02-06T03:22:05.529Z,1031.6
2019-02-06T03:23:03.056Z,1031.7
2019-02-06T03:24:03.846Z,1031.7
2019-02-06T03:25:03.554Z,1031.6
2019-02-06T03:26:03.033Z,1031.6
2019-02-06T03:27:03.752Z,1031.6
2019-02-06T03:28:03.210Z,1031.6
2019-02-06T03:29:04.227Z,1031.6
2019-02-06T03:30:03.705Z,1031.6
2019-02-06T03:31:03.260Z,1031.6
2019-02-06T03:32:04.000Z,1031.6
2019-02-06T03:33:03.487Z,1031.6
2019-02-06T03:34:05.549Z,1031.6
2019-02-06T03:35:03.207Z,1031.6
2019-02-06T03:36:04.129Z,1031.6
2019-02-06T03:37:05.520Z,1031.6
2019-02-06T03:38:03.643Z,1031.6
2019-02-06T03:39:03.694Z,1031.6
2019-02-06T03:40:03.268Z,1031.6
2019-02-06T03:41:03.770Z,1031.6
2019-02-06T03:42:03.869Z,1031.6
2019-02-06T03:43:03.238Z,1031.6
2019-02-06T03:44:03.949Z,1031.5
2019-02-06T03:45:03.385Z,1031.5
2019-02-06T03:46:03.361Z,1031.6
2019-02-06T03:47:04.120Z,1031.5
2019-02-06T03:48:03.375Z,1031.5
2019-02-06T03:49:03.470Z,1031.6
2019-02-06T03:50:03.208Z,1031.5
2019-02-06T03:51:03.613Z,1031.6
2019-02-06T03:52:05.558Z,1031.5
2019-02-06T03:53:02.465Z,1031.6
2019-02-06T03:54:04.024Z,1031.6
2019-02-06T03:55:04.013Z,1031.5
2019-02-06T03:56:03.857Z,1031.5
2019-02-06T03:57:03.136Z,1031.5
2019-02-06T03:58:03.890Z,1031.5
2019-02-06T03:59:03.937Z,1031.6
2019-02-06T04:00:05.209Z,1031.5
2019-02-06T04:01:03.144Z,1031.5
2019-02-06T04:02:02.784Z,1031.5
2019-02-06T04:03:03.853Z,1031.5
2019-02-06T04:04:03.352Z,1031.5
2019-02-06T04:05:03.342Z,1031.4
2019-02-06T04:06:03.658Z,1031.5
2019-02-06T04:07:04.485Z,1031.4
2019-02-06T04:08:03.296Z,1031.4
2019-02-06T04:09:03.430Z,1031.6
2019-02-06T04:10:03.275Z,1031.5
2019-02-06T04:11:03.694Z,1031.5
2019-02-06T04:12:03.184Z,1031.6
2019-02-06T04:13:03.038Z,1031.5
2019-02-06T04:14:03.359Z,1031.6
2019-02-06T04:15:06.114Z,1031.6
2019-02-06T04:16:02.948Z,1031.6
2019-02-06T04:17:03.622Z,1031.5
2019-02-06T04:18:03.116Z,1031.5
2019-02-06T04:19:03.598Z,1031.5
2019-02-06T04:20:03.394Z,1031.5
2019-02-06T04:21:02.973Z,1031.5
2019-02-06T04:22:03.051Z,1031.5
2019-02-06T04:23:05.413Z,1031.5
2019-02-06T04:24:03.474Z,1031.6
2019-02-06T04:25:03.117Z,1031.5
2019-02-06T04:26:03.733Z,1031.5
2019-02-06T04:27:02.922Z,1031.5
2019-02-06T04:28:03.817Z,1031.6
2019-02-06T04:29:04.002Z,1031.5
2019-02-06T04:30:03.382Z,1031.5
2019-02-06T04:31:03.915Z,1031.6
2019-02-06T04:32:03.267Z,1031.6
2019-02-06T04:33:03.594Z,1031.5
2019-02-06T04:34:03.617Z,1031.5
2019-02-06T04:35:03.102Z,1031.6
2019-02-06T04:36:03.642Z,1031.6
2019-02-06T04:37:07.527Z,1031.5
2019-02-06T04:38:04.864Z,1031.5
2019-02-06T04:39:02.998Z,1031.6
2019-02-06T04:40:03.164Z,1031.6
2019-02-06T04:41:03.371Z,1031.6
2019-02-06T04:42:03.329Z,1031.5
2019-02-06T04:43:03.724Z,1031.5
2019-02-06T04:44:03.243Z,1031.5
2019-02-06T04:45:03.329Z,1031.5
2019-02-06T04:46:05.697Z,1031.5
2019-02-06T04:47:03.190Z,1031.5
2019-02-06T04:48:03.577Z,1031.5
2019-02-06T04:49:02.884Z,1031.6
2019-02-06T04:50:03.583Z,1031.6
2019-02-06T04:51:03.573Z,1031.6
2019-02-06T04:52:03.988Z,1031.5
2019-02-06T04:53:04.414Z,1031.5
2019-02-06T04:54:03.221Z,1031.6
2019-02-06T04:55:03.636Z,1031.5
2019-02-06T04:56:03.212Z,1031.5
2019-02-06T04:57:03.599Z,1031.5
2019-02-06T04:58:03.696Z,1031.5
2019-02-06T04:59:03.858Z,1031.6
2019-02-06T05:00:03.787Z,1031.6
2019-02-06T05:01:05.369Z,1031.5
2019-02-06T05:02:03.141Z,1031.5
2019-02-06T05:03:03.596Z,1031.6
2019-02-06T05:04:03.325Z,1031.6
2019-02-06T05:05:03.257Z,1031.7
2019-02-06T05:06:03.914Z,1031.7
2019-02-06T05:07:03.202Z,1031.7
2019-02-06T05:08:03.636Z,1031.8
2019-02-06T05:09:04.012Z,1031.7
2019-02-06T05:10:03.680Z,1031.7
2019-02-06T05:11:03.777Z,1031.7
2019-02-06T05:12:03.834Z,1031.8
2019-02-06T05:13:02.925Z,1031.7
2019-02-06T05:14:03.299Z,1031.7
2019-02-06T05:15:03.074Z,1031.8
2019-02-06T05:16:05.254Z,1031.8
2019-02-06T05:17:03.088Z,1031.8
2019-02-06T05:18:03.637Z,1031.8
2019-02-06T05:19:03.042Z,1031.9
2019-02-06T05:20:03.622Z,1031.9
2019-02-06T05:21:03.928Z,1031.8
2019-02-06T05:22:03.945Z,1031.9
2019-02-06T05:23:03.441Z,1031.8
2019-02-06T05:24:06.100Z,1031.8
2019-02-06T05:25:03.986Z,1031.9
2019-02-06T05:26:03.783Z,1031.9
2019-02-06T05:27:03.903Z,1031.9
2019-02-06T05:28:03.450Z,1031.9
2019-02-06T05:29:03.170Z,1031.8
2019-02-06T05:30:03.697Z,1031.8
2019-02-06T05:31:05.145Z,1031.8
2019-02-06T05:32:02.768Z,1031.8
2019-02-06T05:33:03.826Z,1031.8
2019-02-06T05:34:04.328Z,1031.7
2019-02-06T05:35:03.850Z,1031.8
2019-02-06T05:36:03.411Z,1031.9
2019-02-06T05:37:03.364Z,1031.9
2019-02-06T05:38:03.166Z,1032
2019-02-06T05:39:05.974Z,1031.8
2019-02-06T05:40:03.469Z,1031.9
2019-02-06T05:41:03.490Z,1032
2019-02-06T05:42:03.922Z,1031.9
2019-02-06T05:43:04.009Z,1031.9
2019-02-06T05:44:03.989Z,1031.9
2019-02-06T05:45:03.071Z,1032
2019-02-06T05:46:05.148Z,1031.9
2019-02-06T05:47:03.914Z,1032
2019-02-06T05:48:03.982Z,1032
2019-02-06T05:49:03.688Z,1031.9
2019-02-06T05:50:03.276Z,1031.9
2019-02-06T05:51:03.342Z,1031.9
2019-02-06T05:52:03.268Z,1031.8
2019-02-06T05:53:03.001Z,1031.8
2019-02-06T05:54:03.188Z,1031.8
2019-02-06T05:55:05.536Z,1031.8
2019-02-06T05:56:03.640Z,1031.8
2019-02-06T05:57:02.941Z,1031.7
2019-02-06T05:58:03.469Z,1031.6
2019-02-06T05:59:03.967Z,1031.8
2019-02-06T06:00:03.819Z,1031.7
2019-02-06T06:01:05.487Z,1031.8
2019-02-06T06:02:03.473Z,1031.8
2019-02-06T06:03:03.447Z,1031.6
2019-02-06T06:04:03.348Z,1031.7
2019-02-06T06:05:03.388Z,1031.8
2019-02-06T06:06:03.604Z,1031.7
2019-02-06T06:07:03.733Z,1031.8
2019-02-06T06:08:03.300Z,1031.7
2019-02-06T06:09:04.181Z,1031.8
2019-02-06T06:10:03.886Z,1031.7
2019-02-06T06:11:03.394Z,1031.7
2019-02-06T06:12:03.613Z,1031.8
2019-02-06T06:13:03.950Z,1031.7
2019-02-06T06:14:03.533Z,1031.7
2019-02-06T06:15:03.760Z,1031.7
2019-02-06T06:16:05.943Z,1031.7
2019-02-06T06:17:03.761Z,1031.6
2019-02-06T06:18:03.581Z,1031.7
2019-02-06T06:19:03.839Z,1031.6
2019-02-06T06:20:03.811Z,1031.7
2019-02-06T06:21:03.860Z,1031.7
2019-02-06T06:22:03.820Z,1031.7
2019-02-06T06:23:03.691Z,1031.7
2019-02-06T06:24:03.087Z,1031.8
2019-02-06T06:25:03.633Z,1031.7
2019-02-06T06:26:03.595Z,1031.8
2019-02-06T06:27:04.107Z,1031.7
2019-02-06T06:28:03.469Z,1031.8
2019-02-06T06:29:03.251Z,1031.8
2019-02-06T06:30:03.863Z,1031.8
2019-02-06T06:31:05.932Z,1031.8
2019-02-06T06:32:03.293Z,1031.9
2019-02-06T06:33:03.381Z,1031.7
2019-02-06T06:34:03.388Z,1031.8
2019-02-06T06:35:03.542Z,1031.8
2019-02-06T06:36:03.308Z,1031.8
2019-02-06T06:37:03.923Z,1031.9
2019-02-06T06:38:03.570Z,1031.8
2019-02-06T06:39:03.696Z,1031.8
2019-02-06T06:40:03.724Z,1031.8
2019-02-06T06:41:03.588Z,1031.9
2019-02-06T06:42:03.372Z,1031.9
2019-02-06T06:43:04.043Z,1031.9
2019-02-06T06:44:03.835Z,1031.8
2019-02-06T06:45:03.264Z,1032
2019-02-06T06:46:05.003Z,1031.9
2019-02-06T06:47:03.355Z,1031.9
2019-02-06T06:48:03.806Z,1031.9
2019-02-06T06:49:03.509Z,1032.1
2019-02-06T06:50:03.013Z,1032
2019-02-06T06:51:03.997Z,1032
2019-02-06T06:52:04.490Z,1031.9
2019-02-06T06:53:03.129Z,1032.1
2019-02-06T06:54:05.404Z,1032
2019-02-06T06:55:03.489Z,1032
2019-02-06T06:56:03.805Z,1032.1
2019-02-06T06:57:03.398Z,1032.1
2019-02-06T06:58:03.176Z,1032.1
2019-02-06T06:59:03.622Z,1032.1
2019-02-06T07:00:03.493Z,1032.1
2019-02-06T07:01:03.364Z,1032.2
2019-02-06T07:02:03.265Z,1032.1
2019-02-06T07:03:03.598Z,1032.2
2019-02-06T07:04:03.368Z,1032.2
2019-02-06T07:05:06.163Z,1032.2
2019-02-06T07:06:03.947Z,1032.3
2019-02-06T07:07:03.026Z,1032.3
2019-02-06T07:08:13.949Z,1032.2
2019-02-06T07:09:04.990Z,1032.1
2019-02-06T07:10:03.889Z,1032.3
2019-02-06T07:11:03.228Z,1032.2
2019-02-06T07:12:03.945Z,1032.3
2019-02-06T07:13:03.880Z,1032.2
2019-02-06T07:14:03.396Z,1032.2
2019-02-06T07:15:02.937Z,1032.3
2019-02-06T07:16:03.023Z,1032.2
2019-02-06T07:17:05.111Z,1032.2
2019-02-06T07:18:03.344Z,1032.1
2019-02-06T07:19:03.662Z,1032.2
2019-02-06T07:20:03.531Z,1032.2
2019-02-06T07:21:03.156Z,1032.1
2019-02-06T07:22:03.914Z,1032.1
2019-02-06T07:23:03.894Z,1032.1
2019-02-06T07:24:03.724Z,1032.1
2019-02-06T07:25:03.459Z,1032.1
2019-02-06T07:26:02.939Z,1032.2
2019-02-06T07:27:03.733Z,1032.1
2019-02-06T07:28:03.434Z,1032.2
2019-02-06T07:29:03.093Z,1032.1
2019-02-06T07:30:03.529Z,1032.2
2019-02-06T07:31:03.150Z,1032.2
2019-02-06T07:32:05.342Z,1032.1
2019-02-06T07:33:03.677Z,1032.2
2019-02-06T07:34:03.551Z,1032.1
2019-02-06T07:35:03.745Z,1032.1
2019-02-06T07:36:03.199Z,1032
2019-02-06T07:37:03.554Z,1032.1
2019-02-06T07:38:03.498Z,1032
2019-02-06T07:39:02.728Z,1032
2019-02-06T07:40:06.173Z,1032
2019-02-06T07:41:03.309Z,1032
2019-02-06T07:42:03.361Z,1032
2019-02-06T07:43:03.249Z,1032
2019-02-06T07:44:03.254Z,1032
2019-02-06T07:45:03.215Z,1032
2019-02-06T07:46:03.866Z,1032.1
2019-02-06T07:47:04.815Z,1032.2
2019-02-06T07:48:03.294Z,1032.1
2019-02-06T07:49:03.184Z,1032.1
2019-02-06T07:50:03.885Z,1032.1
2019-02-06T07:51:03.086Z,1032.1
2019-02-06T07:52:03.416Z,1032.1
2019-02-06T07:53:02.932Z,1032.1
2019-02-06T07:54:03.482Z,1032
2019-02-06T07:55:05.298Z,1032
2019-02-06T07:56:03.291Z,1032
2019-02-06T07:57:03.806Z,1032
2019-02-06T07:58:03.448Z,1032
2019-02-06T07:59:02.866Z,1032.1
2019-02-06T08:00:03.631Z,1032.1
2019-02-06T08:01:03.533Z,1032.1
2019-02-06T08:02:04.044Z,1032.1
2019-02-06T08:03:02.915Z,1032.1
2019-02-06T08:04:03.414Z,1031.9
2019-02-06T08:05:03.206Z,1031.9
2019-02-06T08:06:03.182Z,1032
2019-02-06T08:07:03.708Z,1031.9
2019-02-06T08:08:03.784Z,1032
2019-02-06T08:09:03.418Z,1032
2019-02-06T08:10:05.498Z,1032
2019-02-06T08:11:03.616Z,1032
2019-02-06T08:12:03.477Z,1032
2019-02-06T08:13:03.471Z,1031.9
2019-02-06T08:14:02.987Z,1032
2019-02-06T08:15:03.482Z,1031.9
2019-02-06T08:16:03.361Z,1031.9
2019-02-06T08:17:03.024Z,1032
2019-02-06T08:18:03.601Z,1032
2019-02-06T08:19:03.627Z,1031.9
2019-02-06T08:20:03.208Z,1032
2019-02-06T08:21:03.271Z,1031.9
2019-02-06T08:22:03.454Z,1032
2019-02-06T08:23:03.613Z,1032
2019-02-06T08:24:04.148Z,1032
2019-02-06T08:25:05.351Z,1032
2019-02-06T08:26:03.664Z,1032
2019-02-06T08:27:03.633Z,1032
2019-02-06T08:28:03.605Z,1032
2019-02-06T08:29:03.412Z,1032
2019-02-06T08:30:03.587Z,1031.9
2019-02-06T08:31:03.929Z,1032.1
2019-02-06T08:32:03.480Z,1031.9
2019-02-06T08:33:05.715Z,1032
2019-02-06T08:34:03.457Z,1032
2019-02-06T08:35:03.110Z,1032
2019-02-06T08:36:03.591Z,1032
2019-02-06T08:37:03.373Z,1032
2019-02-06T08:38:03.988Z,1031.8
2019-02-06T08:39:02.902Z,1032.1
2019-02-06T08:40:03.645Z,1031.9
2019-02-06T08:41:05.629Z,1031.9
2019-02-06T08:42:03.892Z,1031.8
2019-02-06T08:43:03.003Z,1031.9
2019-02-06T08:45:27.711Z,1031.9
2019-02-06T08:45:27.724Z,1031.9
2019-02-06T08:46:03.988Z,1031.9
2019-02-06T08:47:03.841Z,1031.8
2019-02-06T08:48:04.367Z,1031.8
2019-02-06T08:49:03.585Z,1031.7
2019-02-06T08:50:03.713Z,1031.7
2019-02-06T08:51:03.771Z,1031.7
2019-02-06T08:52:02.801Z,1031.9
2019-02-06T08:53:03.612Z,1031.7
2019-02-06T08:54:03.343Z,1031.8
2019-02-06T08:55:03.152Z,1031.8
2019-02-06T08:56:05.829Z,1031.8
2019-02-06T08:57:03.818Z,1031.8
2019-02-06T08:58:03.679Z,1031.7
2019-02-06T08:59:03.060Z,1031.7
2019-02-06T09:00:03.420Z,1031.7
2019-02-06T09:01:03.426Z,1031.8
2019-02-06T09:02:03.634Z,1031.8
2019-02-06T09:03:03.287Z,1031.7
2019-02-06T09:04:03.591Z,1031.7
2019-02-06T09:05:03.754Z,1031.7
2019-02-06T09:06:03.374Z,1031.8
2019-02-06T09:07:03.808Z,1031.8
2019-02-06T09:08:03.402Z,1031.8
2019-02-06T09:09:03.576Z,1031.9
2019-02-06T09:10:03.570Z,1031.9
2019-02-06T09:11:04.987Z,1032
2019-02-06T09:12:03.803Z,1032
2019-02-06T09:13:03.669Z,1032.1
2019-02-06T09:14:03.979Z,1032
2019-02-06T09:15:03.446Z,1032
2019-02-06T09:16:03.679Z,1032
2019-02-06T09:17:03.420Z,1032
2019-02-06T09:18:03.925Z,1032
2019-02-06T09:19:05.746Z,1032
2019-02-06T09:20:03.545Z,1032
2019-02-06T09:21:03.526Z,1032
2019-02-06T09:22:03.826Z,1032
2019-02-06T09:23:03.015Z,1032
2019-02-06T09:24:03.777Z,1032
2019-02-06T09:25:03.213Z,1032.1
2019-02-06T09:26:03.874Z,1031.9
2019-02-06T09:27:04.004Z,1031.9
2019-02-06T09:28:03.079Z,1031.9
2019-02-06T09:29:02.333Z,1031.8
2019-02-06T09:30:03.662Z,1031.9
2019-02-06T09:31:03.568Z,1031.8
2019-02-06T09:32:03.955Z,1031.8
2019-02-06T09:33:03.886Z,1031.8
2019-02-06T09:34:05.303Z,1031.8
2019-02-06T09:35:03.338Z,1031.8
2019-02-06T09:36:03.796Z,1031.9
2019-02-06T09:37:05.650Z,1031.7
2019-02-06T09:38:03.989Z,1031.7
2019-02-06T09:39:12.555Z,1031.7
2019-02-06T09:40:03.372Z,1031.7
2019-02-06T09:41:03.384Z,1031.8
2019-02-06T09:42:03.400Z,1031.7
2019-02-06T09:43:03.197Z,1031.7
2019-02-06T09:44:04.062Z,1031.9
2019-02-06T09:45:04.139Z,1031.8
2019-02-06T09:46:03.054Z,1031.8
2019-02-06T09:47:03.814Z,1031.7
2019-02-06T09:48:03.463Z,1031.8
2019-02-06T09:49:05.742Z,1031.8
2019-02-06T09:50:03.900Z,1031.6
2019-02-06T09:51:03.182Z,1031.6
2019-02-06T09:52:03.705Z,1031.6
2019-02-06T09:53:03.167Z,1031.6
2019-02-06T09:54:03.721Z,1031.6
2019-02-06T09:55:03.566Z,1031.7
2019-02-06T09:56:03.527Z,1031.6
2019-02-06T09:57:05.701Z,1031.5
2019-02-06T09:58:03.613Z,1031.5
2019-02-06T09:59:04.032Z,1031.6
2019-02-06T10:00:03.647Z,1031.5
2019-02-06T10:01:03.082Z,1031.5
2019-02-06T10:02:03.026Z,1031.6
2019-02-06T10:03:03.316Z,1031.5
2019-02-06T10:04:04.797Z,1031.5
2019-02-06T10:05:03.770Z,1031.4
2019-02-06T10:06:03.660Z,1031.4
2019-02-06T10:07:03.505Z,1031.5
2019-02-06T10:08:03.553Z,1031.5
2019-02-06T10:09:03.169Z,1031.5
2019-02-06T10:10:03.228Z,1031.4
2019-02-06T10:11:03.623Z,1031.5
2019-02-06T10:12:05.640Z,1031.6
2019-02-06T10:13:03.279Z,1031.5
2019-02-06T10:14:03.177Z,1031.5
2019-02-06T10:15:03.737Z,1031.5
2019-02-06T10:16:03.464Z,1031.4
2019-02-06T10:17:03.068Z,1031.5
2019-02-06T10:18:03.819Z,1031.5
2019-02-06T10:19:03.911Z,1031.5
2019-02-06T10:20:03.119Z,1031.5
2019-02-06T10:21:03.133Z,1031.5
2019-02-06T10:22:03.105Z,1031.4
2019-02-06T10:23:03.317Z,1031.3
2019-02-06T10:24:04.062Z,1031.6
2019-02-06T10:25:03.500Z,1031.5
2019-02-06T10:26:03.555Z,1031.5
2019-02-06T10:27:05.087Z,1031.5
2019-02-06T10:28:03.427Z,1031.5
2019-02-06T10:29:02.999Z,1031.5
2019-02-06T10:30:04.454Z,1031.4
2019-02-06T10:31:03.964Z,1031.4
2019-02-06T10:32:03.818Z,1031.3
2019-02-06T10:33:03.292Z,1031.3
2019-02-06T10:34:04.025Z,1031.3
2019-02-06T10:35:05.523Z,1031.3
2019-02-06T10:36:03.784Z,1031.2
2019-02-06T10:37:03.930Z,1031.1
2019-02-06T10:38:03.245Z,1031
2019-02-06T10:39:03.803Z,1031
2019-02-06T10:40:04.126Z,1031.1
2019-02-06T10:41:05.111Z,1031
2019-02-06T10:42:04.049Z,1031
2019-02-06T10:43:03.733Z,1031
2019-02-06T10:44:03.495Z,1031
2019-02-06T10:45:03.852Z,1031
2019-02-06T10:46:03.352Z,1031
2019-02-06T10:47:03.492Z,1031
2019-02-06T10:48:03.646Z,1030.9
2019-02-06T10:49:03.868Z,1030.9
2019-02-06T10:50:05.578Z,1030.9
2019-02-06T10:51:03.938Z,1031
2019-02-06T10:52:03.124Z,1031.1
2019-02-06T10:53:03.821Z,1031
2019-02-06T10:54:03.374Z,1031
2019-02-06T10:55:03.555Z,1031
2019-02-06T10:56:03.888Z,1031
2019-02-06T10:57:03.504Z,1031
2019-02-06T10:58:03.264Z,1031.1
2019-02-06T10:59:03.739Z,1031
2019-02-06T11:00:03.549Z,1031.1
2019-02-06T11:01:03.069Z,1031
2019-02-06T11:02:03.044Z,1030.9
2019-02-06T11:03:03.077Z,1030.9
2019-02-06T11:04:03.075Z,1030.9
2019-02-06T11:05:04.836Z,1030.9
2019-02-06T11:06:03.699Z,1031
2019-02-06T11:07:03.396Z,1030.9
2019-02-06T11:08:03.494Z,1030.9
2019-02-06T11:09:03.328Z,1030.8
2019-02-06T11:10:03.165Z,1030.7
2019-02-06T11:11:04.007Z,1030.9
2019-02-06T11:12:03.091Z,1030.8
2019-02-06T11:13:06.156Z,1030.8
2019-02-06T11:14:03.531Z,1030.9
2019-02-06T11:15:03.512Z,1030.9
2019-02-06T11:16:03.754Z,1030.8
2019-02-06T11:17:03.923Z,1030.8
2019-02-06T11:18:03.251Z,1030.7
2019-02-06T11:19:03.393Z,1030.8
2019-02-06T11:20:04.718Z,1030.7
2019-02-06T11:21:03.223Z,1030.7
2019-02-06T11:22:03.691Z,1030.8
2019-02-06T11:23:03.082Z,1030.7
2019-02-06T11:24:03.440Z,1030.7
2019-02-06T11:25:05.061Z,1030.6
2019-02-06T11:26:03.011Z,1030.5
2019-02-06T11:27:03.639Z,1030.6
2019-02-06T11:28:05.629Z,1030.6
2019-02-06T11:29:03.209Z,1030.5
2019-02-06T11:30:03.664Z,1030.6
2019-02-06T11:31:03.609Z,1030.4
2019-02-06T11:32:03.320Z,1030.5
2019-02-06T11:33:03.807Z,1030.3
2019-02-06T11:34:03.032Z,1030.3
2019-02-06T11:35:03.897Z,1030.3
2019-02-06T11:36:05.786Z,1030.3
2019-02-06T11:37:03.134Z,1030.3
2019-02-06T11:38:03.359Z,1030.4
2019-02-06T11:39:03.314Z,1030.4
2019-02-06T11:40:03.729Z,1030.3
2019-02-06T11:41:03.450Z,1030.3
2019-02-06T11:42:03.346Z,1030.3
2019-02-06T11:43:03.507Z,1030.3
2019-02-06T11:44:02.934Z,1030.3
2019-02-06T11:45:03.245Z,1030.3
2019-02-06T11:46:03.840Z,1030.3
2019-02-06T11:47:03.285Z,1030.3
2019-02-06T11:48:03.575Z,1030.1
2019-02-06T11:49:03.592Z,1030.1
2019-02-06T11:50:03.046Z,1030.1
2019-02-06T11:51:04.951Z,1030.1
2019-02-06T11:52:03.008Z,1030.1
2019-02-06T11:53:03.810Z,1030.1
2019-02-06T11:54:03.634Z,1030.1
2019-02-06T11:55:03.516Z,1030.2
2019-02-06T11:56:03.716Z,1030
2019-02-06T11:57:03.179Z,1030.1
2019-02-06T11:58:03.419Z,1030.1
2019-02-06T11:59:05.658Z,1030.1
2019-02-06T12:00:03.679Z,1030.2
2019-02-06T12:01:03.939Z,1030.2
2019-02-06T12:02:03.322Z,1030.2
2019-02-06T12:03:03.559Z,1030.2
2019-02-06T12:04:03.980Z,1030.2
2019-02-06T12:05:03.232Z,1030
2019-02-06T12:06:04.523Z,1030
2019-02-06T12:07:03.606Z,1030.1
2019-02-06T12:08:03.818Z,1030.1
2019-02-06T12:09:03.544Z,1030.1
2019-02-06T12:10:10.659Z,1030
2019-02-06T12:11:03.085Z,1030
2019-02-06T12:12:03.788Z,1030.1
2019-02-06T12:13:03.710Z,1030
2019-02-06T12:14:05.350Z,1029.9
2019-02-06T12:15:03.306Z,1029.9
2019-02-06T12:16:03.941Z,1029.9
2019-02-06T12:17:03.957Z,1029.9
2019-02-06T12:18:03.070Z,1029.9
2019-02-06T12:19:03.355Z,1029.9
2019-02-06T12:20:03.585Z,1029.9
2019-02-06T12:21:04.147Z,1029.8
2019-02-06T12:22:03.230Z,1029.8
2019-02-06T12:23:03.303Z,1029.9
2019-02-06T12:24:03.020Z,1029.9
2019-02-06T12:25:03.936Z,1029.9
2019-02-06T12:26:03.615Z,1029.7
2019-02-06T12:27:03.175Z,1029.8
2019-02-06T12:28:05.659Z,1029.7
2019-02-06T12:29:04.934Z,1029.7
2019-02-06T12:30:03.364Z,1029.8
2019-02-06T12:31:03.858Z,1029.7
2019-02-06T12:32:03.360Z,1029.6
2019-02-06T12:33:03.058Z,1029.5
2019-02-06T12:34:03.522Z,1029.5